createdAt,value
2018-04-17T00:01:38.101Z,10.17
2018-04-17T00:04:06.368Z,12.90
2018-04-17T00:06:34.636Z,10.63
2018-04-17T00:09:02.943Z,5.93
2018-04-17T00:11:31.953Z,8.70
2018-04-17T00:14:00.228Z,8.07
2018-04-17T00:16:28.488Z,10.53
2018-04-17T00:18:56.807Z,10.97
2018-04-17T00:21:25.072Z,10.30
2018-04-17T00:23:53.492Z,14.33
2018-04-17T00:26:22.673Z,8.30
2018-04-17T00:28:52.415Z,13.77
2018-04-17T00:31:21.420Z,15.13
2018-04-17T00:33:50.629Z,10.50
2018-04-17T00:36:19.432Z,12.77
2018-04-17T00:38:47.696Z,12.60
2018-04-17T00:41:16.109Z,9.93
2018-04-17T00:43:44.356Z,9.17
2018-04-17T00:46:12.609Z,12.53
2018-04-17T00:48:40.956Z,11.50
2018-04-17T00:51:09.247Z,8.23
2018-04-17T00:53:49.520Z,11.90
2018-04-17T00:56:17.800Z,10.77
2018-04-17T00:58:46.083Z,12.43
2018-04-17T01:01:14.332Z,10.27
2018-04-17T01:03:42.598Z,9.83
2018-04-17T01:06:11.744Z,13.13
2018-04-17T01:08:41.544Z,10.07
2018-04-17T01:11:09.793Z,10.80
2018-04-17T01:13:38.173Z,7.77
2018-04-17T01:16:06.556Z,16.77
2018-04-17T01:18:34.792Z,12.77
2018-04-17T01:21:03.059Z,11.23
2018-04-17T01:23:31.310Z,11.60
2018-04-17T01:25:59.574Z,7.97
2018-04-17T01:28:27.850Z,11.73
2018-04-17T01:30:56.111Z,13.23
2018-04-17T01:33:24.388Z,10.97
2018-04-17T01:35:53.426Z,11.83
2018-04-17T01:38:21.762Z,8.97
2018-04-17T01:40:50.848Z,12.90
2018-04-17T01:43:19.082Z,15.03
2018-04-17T01:45:47.341Z,12.77
2018-04-17T01:48:15.625Z,11.67
2018-04-17T01:50:43.909Z,12.20
2018-04-17T01:53:12.196Z,10.73
2018-04-17T01:55:40.434Z,10.13
2018-04-17T01:58:08.707Z,18.70
2018-04-17T02:00:36.949Z,13.10
2018-04-17T02:03:05.207Z,8.33
2018-04-17T02:05:33.495Z,12.20
2018-04-17T02:08:01.762Z,12.43
2018-04-17T02:10:30.785Z,7.93
2018-04-17T02:12:59.043Z,10.63
2018-04-17T02:15:28.258Z,12.77
2018-04-17T02:17:57.088Z,10.13
2018-04-17T02:20:26.080Z,15.00
2018-04-17T02:22:54.373Z,13.20
2018-04-17T02:25:22.634Z,14.17
2018-04-17T02:27:50.998Z,9.83
2018-04-17T02:30:19.330Z,10.43
2018-04-17T02:32:47.652Z,11.67
2018-04-17T02:35:15.929Z,13.10
2018-04-17T02:37:44.270Z,13.27
2018-04-17T02:40:12.558Z,11.30
2018-04-17T02:42:40.826Z,10.03
2018-04-17T02:45:09.123Z,16.33
2018-04-17T02:47:38.303Z,10.47
2018-04-17T02:50:06.552Z,11.73
2018-04-17T02:52:36.902Z,12.90
2018-04-17T02:55:05.160Z,15.13
2018-04-17T02:57:33.444Z,13.60
2018-04-17T03:00:01.703Z,12.53
2018-04-17T03:02:30.005Z,11.50
2018-04-17T03:04:58.253Z,13.10
2018-04-17T03:07:27.349Z,10.07
2018-04-17T03:09:55.603Z,12.40
2018-04-17T03:12:23.856Z,11.40
2018-04-17T03:14:52.168Z,11.37
2018-04-17T03:17:20.424Z,10.80
2018-04-17T03:19:48.692Z,16.73
2018-04-17T03:22:16.973Z,17.30
2018-04-17T03:24:45.209Z,9.63
2018-04-17T03:27:13.513Z,13.83
2018-04-17T03:29:41.797Z,14.97
2018-04-17T03:32:11.269Z,13.70
2018-04-17T03:34:40.393Z,13.93
2018-04-17T03:37:08.668Z,15.23
2018-04-17T03:39:37.720Z,13.90
2018-04-17T03:42:05.980Z,15.80
2018-04-17T03:44:34.231Z,12.50
2018-04-17T03:47:02.526Z,15.93
2018-04-17T03:49:30.863Z,14.43
2018-04-17T03:51:59.188Z,16.67
2018-04-17T03:54:27.420Z,8.90
2018-04-17T03:56:55.677Z,11.10
2018-04-17T03:59:23.977Z,14.83
2018-04-17T04:01:52.237Z,13.10
2018-04-17T04:04:20.504Z,10.73
2018-04-17T04:06:48.768Z,12.30
2018-04-17T04:09:17.058Z,13.33
2018-04-17T04:11:45.309Z,11.43
2018-04-17T04:14:14.324Z,12.00
2018-04-17T04:16:56.743Z,10.20
2018-04-17T04:19:37.188Z,11.10
2018-04-17T04:22:17.514Z,16.03
2018-04-17T04:24:59.095Z,12.70
2018-04-17T04:27:28.148Z,10.80
2018-04-17T04:29:56.383Z,11.70
2018-04-17T04:32:24.786Z,16.53
2018-04-17T04:34:53.815Z,15.30
2018-04-17T04:37:22.937Z,10.70
2018-04-17T04:39:51.244Z,15.40
2018-04-17T04:42:19.526Z,12.10
2018-04-17T04:44:48.580Z,11.87
2018-04-17T04:47:16.943Z,16.03
2018-04-17T04:49:45.229Z,11.40
2018-04-17T04:52:14.257Z,12.20
2018-04-17T04:54:42.515Z,19.00
2018-04-17T04:57:10.927Z,12.83
2018-04-17T04:59:39.199Z,18.23
2018-04-17T05:02:07.425Z,12.10
2018-04-17T05:04:36.621Z,14.83
2018-04-17T05:07:04.912Z,17.20
2018-04-17T05:09:33.476Z,16.37
2018-04-17T05:12:02.529Z,18.97
2018-04-17T05:14:30.764Z,14.67
2018-04-17T05:16:59.821Z,16.33
2018-04-17T05:19:30.225Z,12.07
2018-04-17T05:21:59.418Z,15.23
2018-04-17T05:24:27.783Z,14.27
2018-04-17T05:26:56.355Z,11.87
2018-04-17T05:29:25.410Z,14.90
2018-04-17T05:31:54.664Z,17.43
2018-04-17T05:34:22.947Z,16.33
2018-04-17T05:36:51.292Z,12.27
2018-04-17T05:39:20.558Z,11.93
2018-04-17T05:41:48.809Z,16.77
2018-04-17T05:44:17.149Z,14.77
2018-04-17T05:46:45.396Z,17.70
2018-04-17T05:49:13.719Z,17.23
2018-04-17T05:51:43.028Z,15.00
2018-04-17T05:54:13.035Z,16.27
2018-04-17T05:56:41.301Z,15.10
2018-04-17T05:59:10.468Z,17.73
2018-04-17T06:01:38.750Z,14.43
2018-04-17T06:04:07.672Z,14.90
2018-04-17T06:06:35.980Z,24.07
2018-04-17T06:09:07.036Z,15.60
2018-04-17T06:11:36.184Z,14.77
2018-04-17T06:14:04.472Z,13.53
2018-04-17T06:16:32.757Z,16.77
2018-04-17T06:19:01.020Z,17.70
2018-04-17T06:21:29.304Z,18.70
2018-04-17T06:23:57.598Z,12.47
2018-04-17T06:26:25.975Z,16.27
2018-04-17T06:28:54.345Z,14.87
2018-04-17T06:31:22.609Z,12.13
2018-04-17T06:33:50.900Z,15.07
2018-04-17T06:36:19.195Z,13.33
2018-04-17T06:38:47.477Z,17.67
2018-04-17T06:41:16.544Z,16.37
2018-04-17T06:43:46.555Z,15.50
2018-04-17T06:46:14.817Z,15.20
2018-04-17T06:48:43.074Z,12.67
2018-04-17T06:51:12.866Z,14.43
2018-04-17T06:53:41.233Z,18.90
2018-04-17T06:56:09.495Z,15.70
2018-04-17T06:58:38.592Z,15.23
2018-04-17T07:01:06.861Z,14.30
2018-04-17T07:03:35.935Z,18.17
2018-04-17T07:06:04.213Z,14.97
2018-04-17T07:08:32.496Z,20.13
2018-04-17T07:11:02.319Z,15.00
2018-04-17T07:13:30.720Z,15.47
2018-04-17T07:16:01.381Z,11.60
2018-04-17T07:18:30.436Z,12.20
2018-04-17T07:20:58.751Z,13.57
2018-04-17T07:23:27.766Z,13.63
2018-04-17T07:25:56.791Z,13.63
2018-04-17T07:28:25.167Z,17.63
2018-04-17T07:30:53.433Z,13.50
2018-04-17T07:33:21.872Z,15.63
2018-04-17T07:35:50.123Z,15.27
2018-04-17T07:38:18.368Z,12.90
2018-04-17T07:40:46.645Z,19.57
2018-04-17T07:43:15.640Z,14.97
2018-04-17T07:45:44.693Z,17.70
2018-04-17T07:48:25.959Z,14.10
2018-04-17T07:50:54.216Z,10.73
2018-04-17T07:53:22.505Z,13.70
2018-04-17T07:55:50.777Z,11.37
2018-04-17T07:58:19.069Z,12.87
2018-04-17T08:00:47.378Z,11.30
2018-04-17T08:03:15.617Z,13.83
2018-04-17T08:05:43.959Z,11.90
2018-04-17T08:08:12.249Z,15.77
2018-04-17T08:10:41.256Z,15.73
2018-04-17T08:13:10.285Z,10.50
2018-04-17T08:15:38.583Z,17.23
2018-04-17T08:18:08.346Z,13.03
2018-04-17T08:20:36.589Z,13.43
2018-04-17T08:23:04.832Z,10.40
2018-04-17T08:25:33.129Z,18.60
2018-04-17T08:28:02.324Z,12.00
2018-04-17T08:30:30.612Z,16.13
2018-04-17T08:32:58.895Z,18.80
2018-04-17T08:35:29.020Z,16.97
2018-04-17T08:37:57.288Z,17.77
2018-04-17T08:40:26.668Z,19.67
2018-04-17T08:42:54.947Z,14.90
2018-04-17T08:45:23.223Z,19.20
2018-04-17T08:47:52.248Z,19.77
2018-04-17T08:50:20.505Z,18.43
2018-04-17T08:52:49.725Z,15.43
2018-04-17T08:55:19.334Z,15.00
2018-04-17T08:57:47.625Z,17.03
2018-04-17T09:00:15.894Z,20.73
2018-04-17T09:02:44.169Z,18.87
2018-04-17T09:05:12.663Z,12.47
2018-04-17T09:07:40.906Z,18.87
2018-04-17T09:10:09.928Z,13.63
2018-04-17T09:12:38.955Z,15.37
2018-04-17T09:15:07.184Z,10.80
2018-04-17T09:17:36.258Z,7.80
2018-04-17T09:20:04.474Z,8.80
2018-04-17T09:22:33.517Z,11.87
2018-04-17T09:25:01.792Z,10.30
2018-04-17T09:27:31.034Z,9.67
2018-04-17T09:29:59.275Z,35.30
2018-04-17T09:32:27.510Z,7.27
2018-04-17T09:34:56.616Z,8.73
2018-04-17T09:37:25.652Z,9.40
2018-04-17T09:39:53.955Z,8.87
2018-04-17T09:42:22.816Z,11.93
2018-04-17T09:44:51.776Z,12.37
2018-04-17T09:47:20.820Z,9.93
2018-04-17T09:49:49.048Z,13.97
2018-04-17T09:52:17.329Z,7.23
2018-04-17T09:54:46.470Z,10.03
2018-04-17T09:57:14.803Z,13.57
2018-04-17T09:59:43.056Z,10.40
2018-04-17T10:02:11.360Z,8.37
2018-04-17T10:04:39.588Z,7.33
2018-04-17T10:07:07.858Z,8.60
2018-04-17T10:09:36.202Z,6.70
2018-04-17T10:12:04.418Z,15.17
2018-04-17T10:14:35.143Z,8.03
2018-04-17T10:17:03.411Z,8.73
2018-04-17T10:19:31.635Z,9.97
2018-04-17T10:21:59.913Z,10.17
2018-04-17T10:24:28.188Z,16.13
2018-04-17T10:26:57.485Z,10.20
2018-04-17T10:29:25.743Z,12.23
2018-04-17T10:31:54.947Z,11.93
2018-04-17T10:34:23.968Z,12.37
2018-04-17T10:36:52.249Z,12.40
2018-04-17T10:39:20.599Z,12.40
2018-04-17T10:41:56.291Z,10.20
2018-04-17T10:44:24.700Z,9.00
2018-04-17T10:46:52.996Z,13.37
2018-04-17T10:49:21.231Z,11.67
2018-04-17T10:51:49.508Z,14.50
2018-04-17T10:54:17.759Z,11.27
2018-04-17T10:56:46.791Z,8.83
2018-04-17T10:59:15.045Z,6.47
2018-04-17T11:01:44.105Z,6.10
2018-04-17T11:04:12.346Z,10.10
2018-04-17T11:06:40.699Z,7.43
2018-04-17T11:09:10.740Z,6.00
2018-04-17T11:11:39.955Z,10.40
2018-04-17T11:14:09.027Z,14.20
2018-04-17T11:16:38.760Z,12.40
2018-04-17T11:19:07.095Z,8.90
2018-04-17T11:21:35.380Z,8.60
2018-04-17T11:24:03.828Z,11.50
2018-04-17T11:26:32.095Z,7.40
2018-04-17T11:29:00.353Z,6.37
2018-04-17T11:31:28.605Z,7.97
2018-04-17T11:33:56.845Z,5.67
2018-04-17T11:36:25.133Z,8.60
2018-04-17T11:38:53.381Z,6.53
2018-04-17T11:41:21.678Z,8.33
2018-04-17T11:43:49.945Z,6.50
2018-04-17T11:46:18.197Z,8.50
2018-04-17T11:48:47.314Z,5.43
2018-04-17T11:51:15.661Z,6.40
2018-04-17T11:53:43.912Z,6.50
2018-04-17T11:56:12.189Z,9.53
2018-04-17T11:58:40.495Z,8.10
2018-04-17T12:01:08.728Z,5.10
2018-04-17T12:03:37.754Z,6.50
2018-04-17T12:06:05.992Z,5.50
2018-04-17T12:08:35.016Z,7.40
2018-04-17T12:11:05.096Z,12.07
2018-04-17T12:13:33.431Z,5.27
2018-04-17T12:16:01.713Z,10.27
2018-04-17T12:18:29.957Z,4.63
2018-04-17T12:20:58.976Z,5.30
2018-04-17T12:23:27.240Z,7.80
2018-04-17T12:25:55.940Z,8.73
2018-04-17T12:28:24.233Z,9.73
2018-04-17T12:30:52.518Z,7.03
2018-04-17T12:33:20.800Z,11.03
2018-04-17T12:35:49.118Z,8.20
2018-04-17T12:38:17.376Z,5.50
2018-04-17T12:40:45.664Z,7.03
2018-04-17T12:43:13.935Z,8.10
2018-04-17T12:45:42.238Z,4.87
2018-04-17T12:48:10.503Z,6.77
2018-04-17T12:50:38.801Z,12.30
2018-04-17T12:53:07.881Z,4.93
2018-04-17T12:55:36.138Z,10.13
2018-04-17T12:58:04.412Z,6.63
2018-04-17T13:00:32.688Z,12.90
2018-04-17T13:03:01.113Z,5.97
2018-04-17T13:05:29.357Z,7.07
2018-04-17T13:07:57.621Z,10.63
2018-04-17T13:10:25.892Z,9.70
2018-04-17T13:12:55.803Z,7.00
2018-04-17T13:15:24.061Z,6.17
2018-04-17T13:17:52.355Z,8.13
2018-04-17T13:20:20.600Z,7.63
2018-04-17T13:22:48.861Z,4.30
2018-04-17T13:25:17.233Z,7.97
2018-04-17T13:27:45.460Z,6.00
2018-04-17T13:30:13.732Z,8.27
2018-04-17T13:32:41.986Z,7.47
2018-04-17T13:35:10.232Z,7.50
2018-04-17T13:37:39.265Z,8.83
2018-04-17T13:40:07.542Z,5.60
2018-04-17T13:42:35.801Z,6.70
2018-04-17T13:45:04.840Z,5.63
2018-04-17T13:47:34.758Z,7.47
2018-04-17T13:50:03.036Z,6.00
2018-04-17T13:52:31.349Z,5.60
2018-04-17T13:54:59.576Z,7.17
2018-04-17T13:57:27.837Z,7.67
2018-04-17T13:59:56.947Z,6.10
2018-04-17T14:02:25.248Z,6.67
2018-04-17T14:04:54.283Z,6.73
2018-04-17T14:07:26.593Z,7.00
2018-04-17T14:09:55.632Z,5.67
2018-04-17T14:12:24.069Z,7.83
2018-04-17T14:14:52.422Z,5.30
2018-04-17T14:17:20.692Z,7.60
2018-04-17T14:19:48.916Z,7.10
2018-04-17T14:22:18.816Z,5.20
2018-04-17T14:24:52.156Z,5.67
2018-04-17T14:27:20.422Z,6.23
2018-04-17T14:29:49.556Z,4.60
2018-04-17T14:32:17.859Z,7.33
2018-04-17T14:34:46.079Z,8.53
2018-04-17T14:37:14.459Z,7.93
2018-04-17T14:39:44.234Z,10.50
2018-04-17T14:42:12.589Z,6.13
2018-04-17T14:44:40.853Z,7.57
2018-04-17T14:47:09.134Z,9.53
2018-04-17T14:49:37.360Z,4.97
2018-04-17T14:52:05.620Z,4.87
2018-04-17T14:54:33.908Z,6.70
2018-04-17T14:57:02.940Z,5.60
2018-04-17T14:59:31.963Z,6.40
2018-04-17T15:02:00.242Z,7.33
2018-04-17T15:04:28.487Z,5.73
2018-04-17T15:06:56.755Z,4.90
2018-04-17T15:09:25.044Z,11.83
2018-04-17T15:11:53.337Z,6.50
2018-04-17T15:14:21.578Z,5.93
2018-04-17T15:16:49.832Z,8.57
2018-04-17T15:19:18.112Z,6.23
2018-04-17T15:21:48.120Z,7.17
2018-04-17T15:24:16.400Z,8.40
2018-04-17T15:26:44.741Z,5.80
2018-04-17T15:29:12.991Z,8.37
2018-04-17T15:31:41.219Z,7.67
2018-04-17T15:34:10.771Z,7.90
2018-04-17T15:36:39.026Z,6.43
2018-04-17T15:39:07.350Z,7.80
2018-04-17T15:41:35.607Z,7.63
2018-04-17T15:44:04.722Z,5.50
2018-04-17T15:46:33.455Z,8.50
2018-04-17T15:49:01.721Z,7.27
2018-04-17T15:51:30.066Z,7.13
2018-04-17T15:53:58.309Z,7.27
2018-04-17T15:56:27.388Z,5.70
2018-04-17T15:58:56.557Z,5.30
2018-04-17T16:01:24.822Z,8.70
2018-04-17T16:03:53.291Z,6.43
2018-04-17T16:06:22.374Z,7.23
2018-04-17T16:08:51.395Z,7.47
2018-04-17T16:11:22.852Z,7.97
2018-04-17T16:13:51.860Z,5.50
2018-04-17T16:16:20.101Z,6.57
2018-04-17T16:18:49.160Z,11.27
2018-04-17T16:21:17.400Z,11.33
2018-04-17T16:23:45.701Z,8.27
2018-04-17T16:26:13.940Z,9.33
2018-04-17T16:28:42.989Z,10.63
2018-04-17T16:31:11.220Z,8.00
2018-04-17T16:33:39.507Z,6.27
2018-04-17T16:36:08.556Z,9.53
2018-04-17T16:38:36.835Z,6.43
2018-04-17T16:41:05.106Z,12.90
2018-04-17T16:43:33.341Z,6.80
2018-04-17T16:46:02.446Z,7.87
2018-04-17T16:48:31.508Z,6.53
2018-04-17T16:50:59.723Z,6.10
2018-04-17T16:53:28.115Z,12.93
2018-04-17T16:55:56.476Z,6.47
2018-04-17T16:58:24.848Z,7.23
2018-04-17T17:00:53.150Z,6.00
2018-04-17T17:03:21.393Z,11.63
2018-04-17T17:05:49.689Z,8.23
2018-04-17T17:08:18.017Z,7.90
2018-04-17T17:10:46.294Z,6.43
2018-04-17T17:13:15.468Z,6.30
2018-04-17T17:15:43.716Z,6.10
2018-04-17T17:18:11.996Z,8.37
2018-04-17T17:20:40.219Z,7.40
2018-04-17T17:23:09.247Z,9.87
2018-04-17T17:25:37.497Z,6.20
2018-04-17T17:28:06.699Z,9.60
2018-04-17T17:30:35.729Z,20.67
2018-04-17T17:33:03.995Z,6.30
2018-04-17T17:35:33.117Z,5.77
2018-04-17T17:38:01.389Z,7.07
2018-04-17T17:40:29.705Z,5.60
2018-04-17T17:43:01.203Z,6.60
2018-04-17T17:45:29.700Z,11.20
2018-04-17T17:47:57.950Z,7.40
2018-04-17T17:50:29.136Z,6.33
2018-04-17T17:52:57.619Z,6.33
2018-04-17T17:55:25.872Z,6.50
2018-04-17T17:57:54.177Z,6.90
2018-04-17T18:00:22.423Z,7.20
2018-04-17T18:02:50.887Z,5.90
2018-04-17T18:05:19.109Z,8.53
2018-04-17T18:07:48.437Z,11.80
2018-04-17T18:10:16.725Z,11.17
2018-04-17T18:12:45.031Z,10.33
2018-04-17T18:15:13.283Z,7.40
2018-04-17T18:17:42.370Z,6.70
2018-04-17T18:20:10.635Z,5.20
2018-04-17T18:22:38.879Z,8.97
2018-04-17T18:25:07.163Z,9.00
2018-04-17T18:27:36.181Z,8.60
2018-04-17T18:30:05.228Z,8.37
2018-04-17T18:32:33.482Z,8.93
2018-04-17T18:35:01.761Z,10.43
2018-04-17T18:37:30.029Z,6.77
2018-04-17T18:39:58.433Z,6.50
2018-04-17T18:42:26.762Z,8.40
2018-04-17T18:44:55.129Z,7.07
2018-04-17T18:47:24.286Z,6.83
2018-04-17T18:49:52.524Z,8.20
2018-04-17T18:52:20.776Z,7.07
2018-04-17T18:54:49.044Z,7.30
2018-04-17T18:57:17.355Z,8.20
2018-04-17T18:59:45.607Z,8.53
2018-04-17T19:02:13.870Z,7.63
2018-04-17T19:04:42.136Z,6.03
2018-04-17T19:07:10.397Z,9.87
2018-04-17T19:09:39.447Z,6.10
2018-04-17T19:12:07.762Z,5.93
2018-04-17T19:14:36.023Z,6.93
2018-04-17T19:17:04.314Z,8.73
2018-04-17T19:19:32.586Z,7.20
2018-04-17T19:22:00.863Z,6.10
2018-04-17T19:24:29.324Z,8.43
2018-04-17T19:26:57.747Z,6.27
2018-04-17T19:29:26.004Z,7.23
2018-04-17T19:31:54.260Z,7.17
2018-04-17T19:34:22.531Z,6.20
2018-04-17T19:36:50.836Z,6.33
2018-04-17T19:39:19.100Z,6.67
2018-04-17T19:41:47.363Z,7.17
2018-04-17T19:44:16.996Z,6.97
2018-04-17T19:46:46.213Z,11.07
2018-04-17T19:49:14.496Z,7.80
2018-04-17T19:51:42.765Z,6.90
2018-04-17T19:54:11.819Z,6.80
2018-04-17T19:56:42.954Z,6.70
2018-04-17T19:59:11.180Z,7.67
2018-04-17T20:01:39.464Z,9.80
2018-04-17T20:04:07.757Z,8.23
2018-04-17T20:06:36.050Z,10.90
2018-04-17T20:09:06.150Z,8.63
2018-04-17T20:11:34.451Z,7.47
2018-04-17T20:14:02.694Z,6.60
2018-04-17T20:16:31.749Z,8.20
2018-04-17T20:18:59.988Z,7.43
2018-04-17T20:21:28.805Z,7.20
2018-04-17T20:23:57.275Z,7.70
2018-04-17T20:26:25.564Z,9.77
2018-04-17T20:28:53.825Z,7.17
2018-04-17T20:31:22.116Z,8.43
2018-04-17T20:33:50.465Z,8.80
2018-04-17T20:36:19.475Z,7.53
2018-04-17T20:38:48.581Z,9.93
2018-04-17T20:41:18.415Z,8.07
2018-04-17T20:43:46.684Z,14.37
2018-04-17T20:46:16.601Z,9.30
2018-04-17T20:48:44.860Z,8.33
2018-04-17T20:51:13.194Z,8.60
2018-04-17T20:53:42.464Z,7.70
2018-04-17T20:56:12.257Z,9.57
2018-04-17T20:58:41.995Z,8.67
2018-04-17T21:01:10.333Z,8.20
2018-04-17T21:03:38.545Z,8.97
2018-04-17T21:06:07.606Z,7.30
2018-04-17T21:08:35.917Z,8.13
2018-04-17T21:11:04.128Z,9.53
2018-04-17T21:13:32.391Z,9.20
2018-04-17T21:16:00.682Z,8.70
2018-04-17T21:18:28.925Z,10.93
2018-04-17T21:20:58.723Z,8.80
2018-04-17T21:23:27.868Z,8.93
2018-04-17T21:25:56.612Z,11.63
2018-04-17T21:28:25.772Z,12.87
2018-04-17T21:30:54.100Z,11.33
2018-04-17T21:33:24.292Z,8.23
2018-04-17T21:35:52.646Z,9.13
2018-04-17T21:38:22.032Z,13.80
2018-04-17T21:40:50.365Z,8.73
2018-04-17T21:43:18.770Z,9.37
2018-04-17T21:45:47.100Z,9.20
2018-04-17T21:48:15.372Z,9.00
2018-04-17T21:50:43.796Z,9.30
2018-04-17T21:53:12.107Z,9.33
2018-04-17T21:55:40.357Z,8.53
2018-04-17T21:58:08.658Z,8.80
2018-04-17T22:00:36.935Z,9.53
2018-04-17T22:03:07.104Z,10.33
2018-04-17T22:05:35.448Z,11.17
2018-04-17T22:08:05.416Z,8.57
2018-04-17T22:10:33.626Z,12.93
2018-04-17T22:13:02.002Z,9.80
2018-04-17T22:15:30.233Z,7.47
2018-04-17T22:17:59.260Z,11.53
2018-04-17T22:20:27.513Z,8.90
2018-04-17T22:22:55.846Z,10.90
2018-04-17T22:25:25.051Z,10.53
2018-04-17T22:27:53.272Z,9.53
2018-04-17T22:30:22.418Z,11.10
2018-04-17T22:32:50.692Z,10.07
2018-04-17T22:35:18.945Z,10.33
2018-04-17T22:37:47.273Z,9.33
2018-04-17T22:40:15.518Z,9.57
2018-04-17T22:42:43.754Z,9.93
2018-04-17T22:45:12.032Z,10.43
2018-04-17T22:47:40.271Z,9.63
2018-04-17T22:50:08.554Z,11.47
2018-04-17T22:52:36.831Z,10.90
2018-04-17T22:55:05.256Z,11.33
2018-04-17T22:57:33.579Z,13.10
2018-04-17T23:00:01.861Z,12.50
2018-04-17T23:02:29.913Z,10.83
2018-04-17T23:04:58.198Z,13.00
2018-04-17T23:07:27.245Z,12.67
2018-04-17T23:09:55.521Z,16.73
2018-04-17T23:12:23.802Z,17.70
2018-04-17T23:14:52.063Z,10.13
2018-04-17T23:17:20.352Z,12.40
2018-04-17T23:19:48.595Z,15.30
2018-04-17T23:22:17.694Z,12.10
2018-04-17T23:24:46.803Z,10.43
2018-04-17T23:27:15.871Z,12.27
2018-04-17T23:29:44.120Z,14.87
2018-04-17T23:32:12.451Z,11.73
2018-04-17T23:34:40.684Z,14.20
2018-04-17T23:37:09.410Z,13.27
2018-04-17T23:39:37.660Z,13.13
2018-04-17T23:42:06.021Z,12.80
2018-04-17T23:44:34.400Z,13.53
2018-04-17T23:47:02.731Z,14.77
2018-04-17T23:49:31.040Z,14.00
2018-04-17T23:52:00.076Z,13.07
2018-04-17T23:54:28.340Z,17.97
2018-04-17T23:56:57.672Z,13.20
2018-04-17T23:59:26.739Z,11.60
